< < Back
Terminal Aerodrome Forecast


Current Version              Previous Versions:   1  2  3  4  5  6  7  8  9  

Terminal Aerodrome Forecast

796
FTUS42 KGSP 232300
TAFAVL
TAF
KAVL 232335Z 2400/2424 33010KT P6SM SKC
     FM240500 00000KT P6SM SKC
     FM241400 13006KT P6SM FEW250
     FM242100 17009KT P6SM FEW250=

Latest METAR

447
SAUS70 KWBC 241000 RRC
MTRAVL
METAR KAVL 240954Z AUTO 00000KT 10SM CLR 03/01 A3006 RMK AO2 SLP170
T00330011


USA.gov is the U.S. government's official web portal to all federal, state and local government web resources and services.